Harrisburg, IL (62946)

10:22 PM CDT on July 25, 2014 (GMT -0500)
KILHARRI2 Elev 400 ft | 37.74 °N, 88.54 °W | Change Station
Active Advisory: Special Statement

Current weather conditions updated 22 minutes ago

Clear
Clear
69.9 °F
Feels Like 69.9 °F
N
1.0
Wind Variable Wind from East
Gusts 6.0 mph

Tomorrow is forecast to be Much Warmer than today.

Today
High -- | Low -- °F
--% Chance of Precip.
Yesterday
High -- | Low -- °F
Precip. -- in
5:52 AM 8:08 PM
Waning Crescent, 1% visible
Pressure 29.98 in
Visibility 10.0 miles
Clouds Clear
Dew Point 62 °F
Humidity 75%
Rainfall 0.00 in
Snow Depth Not available.
UV 0 out of 12
Pollen 6.50 out of 12
Air Quality Not available.
Flu Activity Not available.
METAR KHSB 260315Z AUTO 00000KT 10SM CLR 18/18 A2998 RMK AO2 T01820178

More Conditions Fewer Conditions

Pressure 29.98 in
Visibility 10.0 miles
Clouds Clear
Dew Point 62 °F
Humidity 75%
Rainfall 0.00 in
Snow Depth Not available.
UV 0 out of 12
Pollen 6.50 out of 12
Air Quality Not available.
Flu Activity Not available.
METAR KHSB 260315Z AUTO 00000KT 10SM CLR 18/18 A2998 RMK AO2 T01820178

More Conditions Fewer Conditions

10-Day Weather Forecast

Almanac

Astronomy

Jul. 25, 2014 Rise Set
Actual Time 5:52 AM CDT 8:08 PM CDT
Civil Twilight 5:22 AM CDT 8:38 PM CDT
Nautical Twilight 4:45 AM CDT 9:14 PM CDT
Astronomical Twilight 4:05 AM CDT 9:54 PM CDT
Moon 4:50 AM CDT (7/25) 7:06 PM CDT (7/25)
Length of Visible Light 15h 16m
Length of Day
14h 16m
Tomorrow will be 1m 37s shorter.
Waning Crescent, 1% of the Moon is Illuminated
Today
Waning Crescent
Jul 26
New
Aug 3
First Quarter
Aug 10
Full
Aug 17
Last Quarter

Today's Extremes

State Highs State Lows

Community

WunderPhotos

Upload Photos

1,737,499 photos uploaded!

Nearby

Snow Depth

Station Depth Elevation
No new snow has been reported.

Earthquake Activity

City Distance Mag. Time & Date
No recent earthquake activity has been reported nearby.
Minimum magnitude displayed is 2.5.

Coastal Water Temperatures

Place Temperature
No Stations Reporting

Nearby Weather Stations

Station Location Temp. Dew Point Humidity Wind Precip. Elev Updated Type
Harrisburg, IL 69.9 °F 62 °F 75% East  at  1.0 mph 0.00 in / hr 400 ft 10:00 PM CDT Normal
WB0VTM - HAM RADIO, Marion, IL 68.9 °F 69 °F 99% ESE  at  1.7 mph - / hr 492 ft 10:22 PM CDT Normal
MesoWest WFRFRT , West Frankfort, IL 71 °F - - North  at  - 0.00 in / hr 439 ft 9:00 PM CDT MADIS

Show More Stations Show Fewer Stations